createdAt,value
2022-12-04T00:02:12.864Z,134.98
2022-12-04T00:04:40.032Z,145.23
2022-12-04T00:07:06.775Z,146.52
2022-12-04T00:09:33.504Z,143.77
2022-12-04T00:12:00.206Z,150.82
2022-12-04T00:14:26.887Z,153.93
2022-12-04T00:16:53.609Z,152.38
2022-12-04T00:19:20.309Z,148.73
2022-12-04T00:21:48.781Z,147.18
2022-12-04T00:24:15.457Z,147.20
2022-12-04T00:26:42.136Z,140.52
2022-12-04T00:29:08.811Z,153.90
2022-12-04T00:31:35.540Z,151.23
2022-12-04T00:34:02.476Z,145.73
2022-12-04T00:36:30.187Z,142.35
2022-12-04T00:38:59.575Z,150.48
2022-12-04T00:41:27.680Z,154.68
2022-12-04T00:43:54.533Z,144.13
2022-12-04T00:46:22.316Z,161.50
2022-12-04T00:48:49.333Z,163.05
2022-12-04T00:51:21.092Z,151.60
2022-12-04T00:53:47.807Z,159.20
2022-12-04T00:56:20.820Z,161.20
2022-12-04T00:58:48.269Z,149.82
2022-12-04T01:01:17.277Z,152.93
2022-12-04T01:03:44.888Z,157.27
2022-12-04T01:06:30.291Z,144.70
2022-12-04T01:08:58.525Z,157.25
2022-12-04T01:11:26.531Z,164.65
2022-12-04T01:13:53.514Z,157.20
2022-12-04T01:16:25.022Z,156.85
2022-12-04T01:18:52.160Z,169.55
2022-12-04T01:21:19.572Z,170.75
2022-12-04T01:23:46.347Z,157.35
2022-12-04T01:26:13.103Z,148.65
2022-12-04T01:28:40.683Z,152.45
2022-12-04T01:31:10.686Z,152.05
2022-12-04T01:33:37.969Z,149.95
2022-12-04T01:36:07.828Z,162.48
2022-12-04T01:38:35.776Z,173.00
2022-12-04T01:41:03.005Z,164.10
2022-12-04T01:43:32.094Z,153.77
2022-12-04T01:46:00.542Z,168.38
2022-12-04T01:48:44.028Z,167.95
2022-12-04T01:51:20.136Z,164.33
2022-12-04T01:53:52.992Z,156.55
2022-12-04T01:56:24.322Z,158.27
2022-12-04T01:58:54.926Z,149.32
2022-12-04T02:01:21.861Z,156.60
2022-12-04T02:03:49.978Z,160.38
2022-12-04T02:06:16.607Z,161.32
2022-12-04T02:08:43.398Z,152.15
2022-12-04T02:11:35.835Z,161.15
2022-12-04T02:14:30.409Z,154.10
2022-12-04T02:17:08.143Z,168.77
2022-12-04T02:20:02.121Z,161.05
2022-12-04T02:22:57.292Z,149.00
2022-12-04T02:25:56.554Z,149.10
2022-12-04T02:28:28.308Z,152.35
2022-12-04T02:31:00.784Z,156.68
2022-12-04T02:33:46.842Z,165.07
2022-12-04T02:36:19.339Z,152.60
2022-12-04T02:38:54.438Z,147.80
2022-12-04T02:41:27.547Z,144.15
2022-12-04T02:44:16.564Z,152.73
2022-12-04T02:46:47.451Z,151.00
2022-12-04T02:49:26.408Z,144.90
2022-12-04T02:51:57.369Z,148.93
2022-12-04T02:54:35.985Z,160.82
2022-12-04T02:57:09.181Z,153.30
2022-12-04T02:59:53.235Z,152.10
2022-12-04T03:02:35.362Z,143.02
2022-12-04T03:05:09.120Z,148.30
2022-12-04T03:07:46.907Z,151.40
2022-12-04T03:10:22.648Z,155.75
2022-12-04T03:12:54.321Z,145.13
2022-12-04T03:15:31.175Z,144.90
2022-12-04T03:18:05.926Z,150.23
2022-12-04T03:20:35.072Z,151.05
2022-12-04T03:23:15.609Z,140.18
2022-12-04T03:26:01.800Z,139.80
2022-12-04T03:29:06.534Z,131.30
2022-12-04T03:31:45.594Z,141.88
2022-12-04T03:34:17.290Z,138.35
2022-12-04T03:36:57.087Z,136.73
2022-12-04T03:39:30.540Z,138.73
2022-12-04T03:42:08.294Z,143.82
2022-12-04T03:44:37.781Z,138.60
2022-12-04T03:47:09.716Z,138.35
2022-12-04T03:49:51.133Z,141.75
2022-12-04T03:52:47.239Z,140.10
2022-12-04T03:55:24.472Z,140.25
2022-12-04T03:57:52.631Z,132.95
2022-12-04T04:00:21.399Z,141.00
2022-12-04T04:03:03.768Z,137.20
2022-12-04T04:05:32.576Z,135.05
2022-12-04T04:08:21.676Z,127.90
2022-12-04T04:10:50.574Z,133.18
2022-12-04T04:13:40.271Z,131.93
2022-12-04T04:16:29.292Z,137.38
2022-12-04T04:19:16.863Z,130.40
2022-12-04T04:22:03.854Z,132.35
2022-12-04T04:24:46.864Z,136.48
2022-12-04T04:27:14.219Z,133.13
2022-12-04T04:29:45.584Z,135.13
2022-12-04T04:32:29.010Z,134.82
2022-12-04T04:35:26.826Z,143.13
2022-12-04T04:38:21.339Z,131.00
2022-12-04T04:41:20.981Z,130.65
2022-12-04T04:44:04.661Z,137.95
2022-12-04T04:46:39.371Z,140.07
2022-12-04T04:49:09.402Z,138.82
2022-12-04T04:51:36.868Z,138.68
2022-12-04T04:54:10.585Z,130.43
2022-12-04T04:56:45.468Z,144.05
2022-12-04T04:59:12.671Z,145.05
2022-12-04T05:01:41.347Z,138.88
2022-12-04T05:04:08.743Z,137.63
2022-12-04T05:06:35.525Z,152.63
2022-12-04T05:09:02.249Z,132.55
2022-12-04T05:11:28.905Z,138.70
2022-12-04T05:13:55.597Z,143.80
2022-12-04T05:16:22.707Z,144.10
2022-12-04T05:19:08.230Z,142.85
2022-12-04T05:21:35.427Z,137.57
2022-12-04T05:24:02.259Z,133.48
2022-12-04T05:26:28.948Z,129.80
2022-12-04T05:28:55.600Z,137.27
2022-12-04T05:31:22.326Z,133.50
2022-12-04T05:33:49.119Z,138.98
2022-12-04T05:36:15.817Z,135.65
2022-12-04T05:38:42.612Z,145.23
2022-12-04T05:41:09.609Z,143.80
2022-12-04T05:43:37.671Z,140.30
2022-12-04T05:46:06.606Z,139.57
2022-12-04T05:48:34.815Z,149.23
2022-12-04T05:51:08.560Z,141.25
2022-12-04T05:53:36.023Z,145.80
2022-12-04T05:56:04.104Z,143.75
2022-12-04T05:58:31.241Z,141.65
2022-12-04T06:00:57.932Z,140.15
2022-12-04T06:03:24.636Z,143.32
2022-12-04T06:05:51.484Z,142.48
2022-12-04T06:08:18.402Z,137.95
2022-12-04T06:10:45.172Z,141.20
2022-12-04T06:13:11.909Z,147.40
2022-12-04T06:15:40.194Z,149.88
2022-12-04T06:18:06.985Z,148.05
2022-12-04T06:20:34.555Z,145.70
2022-12-04T06:23:01.539Z,130.80
2022-12-04T06:25:28.734Z,140.98
2022-12-04T06:27:55.476Z,131.38
2022-12-04T06:30:22.303Z,139.38
2022-12-04T06:32:48.929Z,145.93
2022-12-04T06:35:35.830Z,152.10
2022-12-04T06:38:28.472Z,153.35
2022-12-04T06:40:55.936Z,152.80
2022-12-04T06:43:23.465Z,139.13
2022-12-04T06:46:01.019Z,151.93
2022-12-04T06:48:29.242Z,150.18
2022-12-04T06:51:05.820Z,146.75
2022-12-04T06:53:33.389Z,153.52
2022-12-04T06:56:02.752Z,157.30
2022-12-04T06:58:29.911Z,150.60
2022-12-04T07:00:57.180Z,162.20
2022-12-04T07:03:25.585Z,157.13
2022-12-04T07:05:52.417Z,138.68
2022-12-04T07:08:19.337Z,159.30
2022-12-04T07:10:46.118Z,164.55
2022-12-04T07:13:12.812Z,156.43
2022-12-04T07:15:39.575Z,170.15
2022-12-04T07:18:06.243Z,178.65
2022-12-04T07:20:32.914Z,163.68
2022-12-04T07:23:04.077Z,148.15
2022-12-04T07:25:33.886Z,149.00
2022-12-04T07:28:00.524Z,157.57
2022-12-04T07:30:27.187Z,154.20
2022-12-04T07:32:53.791Z,156.82
2022-12-04T07:35:20.454Z,149.88
2022-12-04T07:37:47.084Z,152.52
2022-12-04T07:40:14.489Z,139.38
2022-12-04T07:42:41.506Z,149.63
2022-12-04T07:45:09.126Z,156.50
2022-12-04T07:47:36.891Z,156.73
2022-12-04T07:50:05.634Z,149.45
2022-12-04T07:52:39.482Z,164.18
2022-12-04T07:55:07.280Z,161.45
2022-12-04T07:57:34.140Z,147.50
2022-12-04T08:00:00.884Z,151.65
2022-12-04T08:02:27.627Z,154.57
2022-12-04T08:04:54.490Z,156.43
2022-12-04T08:07:21.165Z,156.52
2022-12-04T08:09:47.848Z,145.68
2022-12-04T08:12:14.480Z,155.05
2022-12-04T08:14:41.113Z,155.25
2022-12-04T08:17:07.821Z,151.65
2022-12-04T08:19:34.491Z,135.68
2022-12-04T08:22:01.291Z,157.20
2022-12-04T08:24:27.957Z,168.85
2022-12-04T08:26:54.713Z,177.88
2022-12-04T08:29:21.360Z,149.98
2022-12-04T08:31:48.760Z,152.02
2022-12-04T08:34:15.934Z,134.93
2022-12-04T08:36:42.641Z,141.63
2022-12-04T08:39:11.045Z,144.88
2022-12-04T08:41:37.711Z,150.52
2022-12-04T08:44:04.685Z,140.25
2022-12-04T08:46:31.457Z,150.75
2022-12-04T08:48:58.500Z,149.80
2022-12-04T08:51:29.064Z,157.02
2022-12-04T08:53:57.619Z,147.93
2022-12-04T08:56:25.397Z,153.95
2022-12-04T08:58:52.069Z,169.35
2022-12-04T09:01:19.363Z,155.20
2022-12-04T09:03:46.154Z,144.70
2022-12-04T09:06:14.756Z,144.50
2022-12-04T09:08:41.793Z,149.65
2022-12-04T09:11:15.484Z,152.20
2022-12-04T09:13:43.188Z,151.18
2022-12-04T09:16:15.100Z,144.63
2022-12-04T09:18:42.664Z,137.88
2022-12-04T09:21:11.833Z,140.90
2022-12-04T09:23:39.660Z,145.48
2022-12-04T09:26:16.057Z,137.18
2022-12-04T09:28:42.899Z,140.35
2022-12-04T09:31:09.606Z,136.48
2022-12-04T09:33:36.243Z,147.90
2022-12-04T09:36:03.788Z,131.18
2022-12-04T09:38:31.680Z,131.63
2022-12-04T09:41:05.432Z,125.00
2022-12-04T09:43:47.937Z,165.02
2022-12-04T09:46:25.705Z,136.90
2022-12-04T09:48:54.129Z,140.65
2022-12-04T09:51:23.174Z,135.00
2022-12-04T09:54:13.790Z,125.85
2022-12-04T09:56:43.425Z,141.15
2022-12-04T09:59:24.633Z,127.65
2022-12-04T10:01:58.718Z,147.85
2022-12-04T10:07:30.892Z,129.05
2022-12-04T10:10:00.432Z,118.15
2022-12-04T10:13:08.593Z,120.63
2022-12-04T10:15:52.708Z,126.60
2022-12-04T10:18:19.356Z,127.50
2022-12-04T10:20:50.749Z,125.13
2022-12-04T10:23:36.300Z,131.63
2022-12-04T10:26:05.211Z,132.35
2022-12-04T10:28:37.761Z,118.53
2022-12-04T10:31:06.529Z,128.50
2022-12-04T10:33:43.565Z,126.38
2022-12-04T10:36:17.870Z,125.03
2022-12-04T10:38:56.439Z,117.90
2022-12-04T10:41:38.554Z,118.22
2022-12-04T10:44:05.201Z,111.35
2022-12-04T10:46:34.385Z,117.05
2022-12-04T10:49:21.076Z,108.93
2022-12-04T10:51:48.400Z,104.22
2022-12-04T10:54:37.423Z,113.65
2022-12-04T10:57:10.063Z,110.72
2022-12-04T10:59:48.576Z,106.68
2022-12-04T11:02:23.234Z,104.85
2022-12-04T11:05:32.981Z,104.82
2022-12-04T11:08:03.096Z,110.65
2022-12-04T11:10:41.858Z,110.03
2022-12-04T11:13:15.647Z,95.30
2022-12-04T11:15:47.721Z,102.90
2022-12-04T11:18:25.000Z,114.22
2022-12-04T11:21:16.980Z,114.95
2022-12-04T11:23:46.636Z,112.97
2022-12-04T11:26:14.170Z,108.35
2022-12-04T11:28:47.939Z,105.18
2022-12-04T11:31:21.288Z,121.25
2022-12-04T11:34:14.442Z,122.78
2022-12-04T11:36:42.094Z,123.10
2022-12-04T11:39:17.815Z,118.20
2022-12-04T11:41:44.764Z,114.18
2022-12-04T11:44:26.556Z,116.13
2022-12-04T11:47:00.131Z,117.78
2022-12-04T11:49:28.753Z,121.05
2022-12-04T11:52:01.520Z,121.78
2022-12-04T11:55:00.808Z,122.63
2022-12-04T11:57:37.214Z,119.47
2022-12-04T12:00:14.901Z,122.25
2022-12-04T12:03:04.398Z,127.75
2022-12-04T12:05:49.151Z,120.50
2022-12-04T12:08:42.202Z,127.75
2022-12-04T12:11:25.321Z,123.72
2022-12-04T12:14:32.222Z,137.63
2022-12-04T12:17:39.751Z,130.48
2022-12-04T12:20:42.392Z,134.02
2022-12-04T12:23:34.280Z,133.98
2022-12-04T12:26:11.122Z,137.65
2022-12-04T12:29:05.653Z,136.10
2022-12-04T12:31:47.562Z,149.52
2022-12-04T12:34:40.878Z,158.18
2022-12-04T12:37:30.857Z,148.45
2022-12-04T12:40:20.303Z,136.27
2022-12-04T12:42:58.377Z,148.68
2022-12-04T12:45:40.725Z,164.85
2022-12-04T12:48:16.599Z,150.82
2022-12-04T12:51:09.088Z,152.70
2022-12-04T12:53:42.867Z,160.43
2022-12-04T12:56:13.348Z,156.25
2022-12-04T12:58:51.421Z,163.25
2022-12-04T13:01:33.731Z,181.38
2022-12-04T13:04:12.801Z,162.88
2022-12-04T13:06:42.800Z,191.13
2022-12-04T13:09:27.171Z,166.98
2022-12-04T13:12:05.811Z,200.02
2022-12-04T13:14:32.777Z,178.98
2022-12-04T13:17:23.351Z,174.40
2022-12-04T13:19:56.629Z,185.13
2022-12-04T13:22:46.896Z,179.18
2022-12-04T13:25:34.045Z,177.52
2022-12-04T13:28:07.867Z,184.82
2022-12-04T13:31:03.980Z,182.00
2022-12-04T13:33:40.452Z,189.95
2022-12-04T13:36:28.994Z,190.23
2022-12-04T13:39:20.567Z,183.52
2022-12-04T13:41:47.658Z,192.65
2022-12-04T13:44:22.399Z,193.68
2022-12-04T13:47:06.329Z,190.18
2022-12-04T13:49:37.808Z,180.75
2022-12-04T13:52:19.929Z,200.80
2022-12-04T13:54:58.311Z,218.85
2022-12-04T13:57:25.347Z,205.90
2022-12-04T14:00:07.038Z,206.05
2022-12-04T14:02:35.799Z,214.30
2022-12-04T14:05:10.999Z,182.27
2022-12-04T14:07:40.630Z,217.57
2022-12-04T14:10:16.933Z,197.75
2022-12-04T14:12:55.669Z,217.13
2022-12-04T14:15:25.555Z,219.70
2022-12-04T14:18:10.832Z,203.23
2022-12-04T14:20:39.073Z,225.02
2022-12-04T14:23:10.385Z,213.93
2022-12-04T14:25:39.696Z,219.05
2022-12-04T14:28:24.919Z,217.02
2022-12-04T14:31:01.479Z,215.88
2022-12-04T14:33:30.700Z,200.27
2022-12-04T14:36:08.048Z,195.07
2022-12-04T14:38:35.162Z,191.52
2022-12-04T14:41:03.232Z,206.45
2022-12-04T14:43:39.542Z,198.38
2022-12-04T14:46:59.224Z,217.70
2022-12-04T14:49:40.482Z,206.55
2022-12-04T14:52:29.158Z,235.23
2022-12-04T14:55:18.089Z,235.13
2022-12-04T14:57:54.331Z,227.07
2022-12-04T15:00:23.216Z,238.93
2022-12-04T15:02:54.791Z,230.27
2022-12-04T15:05:31.830Z,230.73
2022-12-04T15:08:05.034Z,230.98
2022-12-04T15:10:52.791Z,240.73
2022-12-04T15:13:33.105Z,240.32
2022-12-04T15:16:17.830Z,252.40
2022-12-04T15:18:58.703Z,254.02
2022-12-04T15:21:39.808Z,244.48
2022-12-04T15:24:20.081Z,259.33
2022-12-04T15:26:49.551Z,272.13
2022-12-04T15:29:25.562Z,253.25
2022-12-04T15:31:56.813Z,298.75
2022-12-04T15:34:37.876Z,258.65
2022-12-04T15:37:08.816Z,261.02
2022-12-04T15:39:38.032Z,276.83
2022-12-04T15:42:24.967Z,277.52
2022-12-04T15:45:10.018Z,319.02
2022-12-04T15:47:42.680Z,273.48
2022-12-04T15:50:18.237Z,325.48
2022-12-04T15:52:57.066Z,290.40
2022-12-04T15:55:25.343Z,287.15
2022-12-04T15:57:56.086Z,287.98
2022-12-04T16:00:22.882Z,311.63
2022-12-04T16:02:50.603Z,283.15
2022-12-04T16:05:20.321Z,267.05
2022-12-04T16:07:59.008Z,269.50
2022-12-04T16:10:29.699Z,322.58
2022-12-04T16:12:59.126Z,301.50
2022-12-04T16:15:34.326Z,278.13
2022-12-04T16:18:01.036Z,275.90
2022-12-04T16:20:27.734Z,251.00
2022-12-04T16:22:55.245Z,243.52
2022-12-04T16:25:21.980Z,244.38
2022-12-04T16:27:48.771Z,225.55
2022-12-04T16:30:15.630Z,220.20
2022-12-04T16:32:42.443Z,228.80
2022-12-04T16:35:16.868Z,221.63
2022-12-04T16:37:43.646Z,224.80
2022-12-04T16:40:14.707Z,237.48
2022-12-04T16:42:42.526Z,226.52
2022-12-04T16:45:33.173Z,216.25
2022-12-04T16:47:59.918Z,210.02
2022-12-04T16:50:27.682Z,226.20
2022-12-04T16:52:54.602Z,228.43
2022-12-04T16:55:28.057Z,216.57
2022-12-04T16:57:54.768Z,215.23
2022-12-04T17:00:21.754Z,223.55
2022-12-04T17:02:48.556Z,219.10
2022-12-04T17:05:29.298Z,209.52
2022-12-04T17:07:56.370Z,215.75
2022-12-04T17:10:24.563Z,207.00
2022-12-04T17:12:54.604Z,215.82
2022-12-04T17:15:21.614Z,204.43
2022-12-04T17:17:48.287Z,213.82
2022-12-04T17:20:18.246Z,209.25
2022-12-04T17:22:45.059Z,232.70
2022-12-04T17:25:12.703Z,224.05
2022-12-04T17:27:40.124Z,224.02
2022-12-04T17:30:08.093Z,203.80
2022-12-04T17:32:35.331Z,220.55
2022-12-04T17:35:03.218Z,201.15
2022-12-04T17:37:31.950Z,210.65
2022-12-04T17:39:58.646Z,210.48
2022-12-04T17:42:25.363Z,207.02
2022-12-04T17:44:52.023Z,216.75
2022-12-04T17:47:18.710Z,194.48
2022-12-04T17:49:45.397Z,217.45
2022-12-04T17:52:12.060Z,200.40
2022-12-04T17:54:38.740Z,198.13
2022-12-04T17:57:05.437Z,208.77
2022-12-04T17:59:32.229Z,198.60
2022-12-04T18:01:58.920Z,227.63
2022-12-04T18:04:25.590Z,204.88
2022-12-04T18:06:52.646Z,211.32
2022-12-04T18:09:19.272Z,192.63
2022-12-04T18:11:47.685Z,209.02
2022-12-04T18:14:22.017Z,187.27
2022-12-04T18:16:53.000Z,195.63
2022-12-04T18:19:21.425Z,191.48
2022-12-04T18:21:48.975Z,197.15
2022-12-04T18:24:16.317Z,179.60
2022-12-04T18:26:45.940Z,183.55
2022-12-04T18:29:14.777Z,190.77
2022-12-04T18:31:41.958Z,195.38
2022-12-04T18:34:09.197Z,178.48
2022-12-04T18:36:38.706Z,170.48
2022-12-04T18:39:15.038Z,189.57
2022-12-04T18:41:41.856Z,170.55
2022-12-04T18:44:09.605Z,181.85
2022-12-04T18:46:36.678Z,175.20
2022-12-04T18:49:04.333Z,176.50
2022-12-04T18:51:39.345Z,164.07
2022-12-04T18:54:18.905Z,163.70
2022-12-04T18:56:45.921Z,171.88
2022-12-04T18:59:24.590Z,167.52
2022-12-04T19:01:52.350Z,165.40
2022-12-04T19:05:07.734Z,180.30
2022-12-04T19:07:58.764Z,169.13
2022-12-04T19:10:27.380Z,168.32
2022-12-04T19:12:54.656Z,179.15
2022-12-04T19:15:21.937Z,163.93
2022-12-04T19:17:48.851Z,161.38
2022-12-04T19:20:18.147Z,159.35
2022-12-04T19:22:45.076Z,171.70
2022-12-04T19:25:11.843Z,165.25
2022-12-04T19:27:38.519Z,169.18
2022-12-04T19:30:06.620Z,163.05
2022-12-04T19:32:33.694Z,168.82
2022-12-04T19:35:00.343Z,155.77
2022-12-04T19:37:27.099Z,176.55
2022-12-04T19:39:54.852Z,180.60
2022-12-04T19:42:21.892Z,175.43
2022-12-04T19:44:49.658Z,188.32
2022-12-04T19:47:17.396Z,183.85
2022-12-04T19:49:44.102Z,190.43
2022-12-04T19:52:10.768Z,201.88
2022-12-04T19:54:37.574Z,198.20
2022-12-04T19:57:04.319Z,175.70
2022-12-04T19:59:36.392Z,202.00
2022-12-04T20:02:04.494Z,191.85
2022-12-04T20:04:31.251Z,192.10
2022-12-04T20:06:57.923Z,183.43
2022-12-04T20:09:25.251Z,187.10
2022-12-04T20:11:51.993Z,187.68
2022-12-04T20:14:19.025Z,185.02
2022-12-04T20:16:46.646Z,179.52
2022-12-04T20:19:15.752Z,197.20
2022-12-04T20:21:43.188Z,171.90
2022-12-04T20:24:11.531Z,196.15
2022-12-04T20:26:40.311Z,173.15
2022-12-04T20:29:10.807Z,187.00
2022-12-04T20:31:41.509Z,185.80
2022-12-04T20:34:12.589Z,183.55
2022-12-04T20:36:42.173Z,172.25
2022-12-04T20:39:10.588Z,192.10
2022-12-04T20:41:38.083Z,204.85
2022-12-04T20:44:07.937Z,183.73
2022-12-04T20:46:39.427Z,197.85
2022-12-04T20:49:08.865Z,200.23
2022-12-04T20:51:41.685Z,190.70
2022-12-04T20:54:12.011Z,196.88
2022-12-04T20:56:38.974Z,207.20
2022-12-04T20:59:13.237Z,209.82
2022-12-04T21:01:40.669Z,196.82
2022-12-04T21:04:07.728Z,208.35
2022-12-04T21:06:40.447Z,202.80
2022-12-04T21:09:10.952Z,207.30
2022-12-04T21:11:39.788Z,215.18
2022-12-04T21:14:29.392Z,216.55
2022-12-04T21:16:56.352Z,193.02
2022-12-04T21:19:23.236Z,211.15
2022-12-04T21:21:50.366Z,226.75
2022-12-04T21:24:19.117Z,239.57
2022-12-04T21:26:47.088Z,210.82
2022-12-04T21:29:15.242Z,227.43
2022-12-04T21:31:42.568Z,203.60
2022-12-04T21:34:12.350Z,240.57
2022-12-04T21:36:39.726Z,201.75
2022-12-04T21:39:06.905Z,222.52
2022-12-04T21:41:52.642Z,204.93
2022-12-04T21:44:20.882Z,208.40
2022-12-04T21:46:48.492Z,223.18
2022-12-04T21:49:17.555Z,215.80
2022-12-04T21:51:59.879Z,243.80
2022-12-04T21:54:30.116Z,246.40
2022-12-04T21:56:57.382Z,228.82
2022-12-04T21:59:25.350Z,208.00
2022-12-04T22:01:52.641Z,209.10
2022-12-04T22:04:19.433Z,236.23
2022-12-04T22:06:46.086Z,230.80
2022-12-04T22:09:13.094Z,249.65
2022-12-04T22:11:44.028Z,233.00
2022-12-04T22:14:12.380Z,235.80
2022-12-04T22:16:42.632Z,232.65
2022-12-04T22:19:11.042Z,248.10
2022-12-04T22:21:37.850Z,242.85
2022-12-04T22:24:05.339Z,209.70
2022-12-04T22:26:32.660Z,262.63
2022-12-04T22:28:59.350Z,212.15
2022-12-04T22:31:28.051Z,235.32
2022-12-04T22:33:56.637Z,228.10
2022-12-04T22:36:25.851Z,260.77
2022-12-04T22:39:08.862Z,264.35
2022-12-04T22:41:37.356Z,231.48
2022-12-04T22:44:04.423Z,221.20
2022-12-04T22:46:31.182Z,258.80
2022-12-04T22:48:59.192Z,270.80
2022-12-04T22:51:27.150Z,204.88
2022-12-04T22:53:57.048Z,258.05
2022-12-04T22:56:26.513Z,283.55
2022-12-04T22:58:54.344Z,287.13
2022-12-04T23:01:25.137Z,245.23
2022-12-04T23:03:53.217Z,228.32
2022-12-04T23:06:22.128Z,265.80
2022-12-04T23:08:48.955Z,248.20
2022-12-04T23:11:18.634Z,221.52
2022-12-04T23:13:59.934Z,260.52
2022-12-04T23:16:28.154Z,218.00
2022-12-04T23:18:55.042Z,230.50
2022-12-04T23:21:22.774Z,205.77
2022-12-04T23:23:51.522Z,226.40
2022-12-04T23:26:20.883Z,229.73
2022-12-04T23:28:47.791Z,223.02
2022-12-04T23:31:15.571Z,221.63
2022-12-04T23:33:42.293Z,220.95
2022-12-04T23:36:11.346Z,246.10
2022-12-04T23:38:39.493Z,228.25
2022-12-04T23:41:10.342Z,219.93
2022-12-04T23:43:37.615Z,246.50
2022-12-04T23:46:10.657Z,221.20
2022-12-04T23:48:43.690Z,199.57
2022-12-04T23:51:12.248Z,213.55
2022-12-04T23:53:39.701Z,204.50
2022-12-04T23:56:16.495Z,227.85
2022-12-04T23:58:44.756Z,218.75
